Time;durP1;ratioP1;P1;durP2;ratioP2;P2;SDS_P1;SDS_P2;PMS_P1;PMS_P2;Temp;Humidity;BMP_temperature;BMP_pressure;BME280_temperature;BME280_humidity;BME280_pressure;Samples;Min_cycle;Max_cycle;Signal;HPM_P1;HPM_P2
2023/08/06 00:00:22;;;;;;;;;1.33;1.00;;;;;26.58;42.58;100936.78;5034840;28;45339;-69
2023/08/06 00:02:48;;;;;;;;;0.67;0.67;;;;;26.57;42.04;100940.47;5035016;28;45292;-69
2023/08/06 00:05:17;;;;;;;;;1.00;1.00;;;;;26.57;42.42;100940.47;5035122;28;45394;-69
2023/08/06 00:07:46;;;;;;;;;0.00;0.00;;;;;26.56;42.59;100941.53;5034401;28;46956;-69
2023/08/06 00:10:11;;;;;;;;;0.00;0.00;;;;;26.54;42.09;100946.25;5034641;28;45382;-69
2023/08/06 00:12:37;;;;;;;;;0.00;0.00;;;;;26.54;42.15;100946.25;5034890;28;45395;-69
2023/08/06 00:15:03;;;;;;;;;0.00;0.00;;;;;26.54;42.35;100956.09;5034933;28;45681;-69
2023/08/06 00:17:28;;;;;;;;;0.00;0.00;;;;;26.54;42.34;100958.78;5034685;28;45420;-69
2023/08/06 00:19:53;;;;;;;;;0.00;0.00;;;;;26.54;42.00;100948.91;5034782;28;45407;-69
2023/08/06 00:22:19;;;;;;;;;0.00;0.00;;;;;26.53;42.61;100952.59;5034560;28;45409;-69
2023/08/06 00:24:44;;;;;;;;;0.00;0.00;;;;;26.54;42.48;100948.91;5034729;28;45386;-70
2023/08/06 00:27:09;;;;;;;;;1.00;0.00;;;;;26.52;42.15;100962.44;5034727;28;45418;-69
2023/08/06 00:29:35;;;;;;;;;1.00;1.00;;;;;26.54;42.17;100961.44;5034678;28;45481;-69
2023/08/06 00:32:00;;;;;;;;;1.00;1.00;;;;;26.53;42.02;100971.28;5034755;28;45342;-68
2023/08/06 00:34:25;;;;;;;;;0.00;0.00;;;;;26.52;42.67;100964.28;5034595;28;45323;-69
2023/08/06 00:36:50;;;;;;;;;0.00;0.00;;;;;26.52;42.13;100982.97;5034169;28;45424;-69
2023/08/06 00:39:16;;;;;;;;;0.00;0.00;;;;;26.52;42.10;100985.63;5034591;28;45198;-69
2023/08/06 00:41:41;;;;;;;;;0.00;0.00;;;;;26.51;41.83;100976.00;5034759;28;45460;-69
2023/08/06 00:44:06;;;;;;;;;0.00;0.00;;;;;26.51;42.14;100976.00;5034311;28;45606;-69
2023/08/06 00:46:33;;;;;;;;;1.00;1.00;;;;;26.49;42.05;100976.19;5034481;28;46120;-69
2023/08/06 00:48:59;;;;;;;;;0.00;0.00;;;;;26.50;41.97;100977.84;5034554;28;45550;-69
2023/08/06 00:51:25;;;;;;;;;0.00;0.00;;;;;26.49;41.81;100970.06;5016277;28;45394;-69
2023/08/06 00:53:52;;;;;;;;;1.67;0.00;;;;;26.53;41.84;100987.28;5034504;28;45308;-69
2023/08/06 00:56:17;;;;;;;;;1.00;0.00;;;;;26.54;41.94;100988.94;5034278;28;46169;-69
2023/08/06 00:58:44;;;;;;;;;1.00;0.00;;;;;26.54;42.38;100993.44;5103094;27;45315;-69
2023/08/06 01:01:10;;;;;;;;;0.67;0.67;;;;;26.55;42.46;101003.06;5034484;28;45344;-69
2023/08/06 01:03:35;;;;;;;;;0.00;0.00;;;;;26.53;42.41;100992.63;5034221;28;45326;-69
2023/08/06 01:06:00;;;;;;;;;0.33;0.00;;;;;26.55;42.52;100998.56;5033907;28;47199;-69
2023/08/06 01:08:44;;;;;;;;;0.67;0.67;;;;;26.54;41.98;100996.94;5033969;28;45291;-69
2023/08/06 01:11:33;;;;;;;;;0.00;0.00;;;;;26.55;41.97;101011.09;5035286;27;45241;-68
2023/08/06 01:14:08;;;;;;;;;0.00;0.00;;;;;26.55;41.92;101013.75;5034277;28;45326;-69
2023/08/06 01:16:33;;;;;;;;;0.00;0.00;;;;;26.54;41.98;101020.97;5033160;28;46271;-69
2023/08/06 01:18:58;;;;;;;;;0.00;0.00;;;;;26.54;42.39;101026.28;5033632;27;47915;-69
2023/08/06 01:21:24;;;;;;;;;1.67;0.00;;;;;26.53;41.98;101027.31;5033870;28;45304;-69
2023/08/06 01:23:49;;;;;;;;;0.33;0.33;;;;;26.48;41.97;101022.59;5033434;28;45317;-69
2023/08/06 01:26:28;;;;;;;;;0.00;0.00;;;;;26.49;42.06;101029.56;5033401;28;46802;-69
2023/08/06 01:29:07;;;;;;;;;0.00;0.00;;;;;26.49;42.35;101029.56;5034116;28;45424;-69
2023/08/06 01:31:37;;;;;;;;;0.00;0.00;;;;;26.49;42.00;101037.56;5068979;27;45268;-69
2023/08/06 01:34:06;;;;;;;;;0.00;0.00;;;;;26.49;42.06;101044.78;5033674;28;45398;-69
2023/08/06 01:36:31;;;;;;;;;0.00;0.00;;;;;26.48;42.46;101037.78;5033698;28;47027;-69
2023/08/06 01:38:57;;;;;;;;;1.00;0.00;;;;;26.37;42.03;101029.34;5033825;28;45429;-69
2023/08/06 01:41:22;;;;;;;;;1.00;0.00;;;;;26.48;42.65;101045.78;5034028;28;45292;-69
2023/08/06 01:43:48;;;;;;;;;0.00;0.00;;;;;26.49;42.32;101055.44;5033749;28;45338;-69
2023/08/06 01:46:13;;;;;;;;;0.00;0.00;;;;;26.49;41.86;101066.91;5033705;28;45269;-69
2023/08/06 01:48:38;;;;;;;;;0.33;0.00;;;;;26.50;42.00;101068.56;5033473;28;45394;-69
2023/08/06 01:51:05;;;;;;;;;1.00;0.00;;;;;26.48;42.06;101077.78;5033878;28;45413;-69
2023/08/06 01:53:31;;;;;;;;;1.00;1.00;;;;;26.48;42.34;101078.63;5033641;28;45408;-69
2023/08/06 01:55:57;;;;;;;;;0.00;0.00;;;;;26.47;42.46;101082.31;5033293;28;46351;-69
2023/08/06 01:58:22;;;;;;;;;0.00;0.00;;;;;26.48;42.26;101089.28;5033491;28;45357;-69
2023/08/06 02:00:47;;;;;;;;;0.00;0.00;;;;;26.49;41.85;101087.44;5033603;27;45385;-69
2023/08/06 02:03:13;;;;;;;;;1.00;1.00;;;;;26.49;42.38;101090.91;5033260;28;45392;-69
2023/08/06 02:05:38;;;;;;;;;1.00;1.00;;;;;26.50;42.55;101099.75;5033465;28;45280;-69
2023/08/06 02:08:03;;;;;;;;;0.00;0.00;;;;;26.50;42.34;101094.41;5033358;28;45417;-69
2023/08/06 02:10:29;;;;;;;;;0.00;0.00;;;;;26.51;42.41;101101.41;5033456;28;45219;-69
2023/08/06 02:12:54;;;;;;;;;0.00;0.00;;;;;26.49;41.75;101108.78;5033620;28;45478;-69
2023/08/06 02:15:19;;;;;;;;;0.00;0.00;;;;;26.50;41.99;101108.56;5033377;28;45258;-69
2023/08/06 02:17:44;;;;;;;;;0.00;0.00;;;;;26.50;41.75;101107.75;5032859;27;46865;-69
2023/08/06 02:20:10;;;;;;;;;0.00;0.00;;;;;26.50;42.19;101116.59;5033136;28;45221;-69
2023/08/06 02:22:35;;;;;;;;;0.00;0.00;;;;;26.50;41.96;101115.75;5033534;28;45235;-69
2023/08/06 02:25:01;;;;;;;;;0.00;0.00;;;;;26.49;42.15;101122.94;5033133;28;45272;-69
2023/08/06 02:27:26;;;;;;;;;0.33;0.33;;;;;26.49;41.99;101127.47;5033355;28;45230;-69
2023/08/06 02:29:51;;;;;;;;;0.00;0.00;;;;;26.49;42.36;101125.59;5033426;28;45298;-69
2023/08/06 02:32:17;;;;;;;;;0.00;0.00;;;;;26.49;41.70;101138.94;5032920;28;45382;-68
2023/08/06 02:34:42;;;;;;;;;0.00;0.00;;;;;26.49;41.72;101138.16;5032500;27;46012;-69
2023/08/06 02:37:07;;;;;;;;;1.00;1.00;;;;;26.48;41.63;101129.31;5032523;28;45305;-69
2023/08/06 02:39:34;;;;;;;;;0.33;0.00;;;;;26.49;42.07;101136.28;5033113;28;45451;-69
2023/08/06 02:41:59;;;;;;;;;0.00;0.00;;;;;26.49;41.97;101130.94;5033156;28;45306;-69
2023/08/06 02:44:27;;;;;;;;;0.00;0.00;;;;;26.47;42.35;101135.66;5032500;28;52849;-69
2023/08/06 02:46:53;;;;;;;;;0.00;0.00;;;;;26.46;42.29;101130.53;5032568;28;45395;-69
2023/08/06 02:49:18;;;;;;;;;0.67;0.33;;;;;26.46;42.49;101138.53;5033162;28;45319;-69
2023/08/06 02:51:46;;;;;;;;;0.67;0.00;;;;;26.44;41.93;101136.06;5032820;28;45470;-69
2023/08/06 02:54:12;;;;;;;;;0.33;0.33;;;;;26.43;42.30;101128.25;5032672;28;47290;-69
2023/08/06 02:56:38;;;;;;;;;0.00;0.00;;;;;26.43;41.89;101122.91;5032637;28;45427;-69
2023/08/06 02:59:03;;;;;;;;;0.00;0.00;;;;;26.44;42.46;101135.25;5032922;28;45426;-69
2023/08/06 03:01:28;;;;;;;;;0.00;0.00;;;;;26.39;42.05;101128.66;5032493;28;45348;-69
2023/08/06 03:03:54;;;;;;;;;0.67;0.00;;;;;26.43;42.24;101134.41;5032533;28;47055;-68
2023/08/06 03:06:19;;;;;;;;;1.00;1.00;;;;;26.42;42.46;101135.41;5032533;28;45454;-69
2023/08/06 03:08:45;;;;;;;;;1.00;0.00;;;;;26.45;41.83;101135.06;5032404;28;45497;-69
2023/08/06 03:11:10;;;;;;;;;0.00;0.00;;;;;26.43;41.97;101131.75;5032684;28;45362;-69
2023/08/06 03:13:35;;;;;;;;;1.00;0.00;;;;;26.45;42.09;101134.22;5032466;28;46961;-69
2023/08/06 03:16:01;;;;;;;;;1.33;0.33;;;;;26.46;41.80;101135.88;5031203;27;45619;-69
2023/08/06 03:18:27;;;;;;;;;0.00;0.00;;;;;26.46;42.23;101133.22;5032571;27;45398;-68
2023/08/06 03:20:52;;;;;;;;;1.00;1.00;;;;;26.45;42.12;101132.38;5014690;28;45458;-69
2023/08/06 03:23:18;;;;;;;;;1.33;0.00;;;;;26.45;41.85;101124.38;5032389;28;45896;-69
2023/08/06 03:25:44;;;;;;;;;0.00;0.00;;;;;26.45;42.16;101129.72;5032377;28;45291;-69
2023/08/06 03:28:10;;;;;;;;;0.00;0.00;;;;;26.46;41.77;101135.88;5032414;28;45307;-69
2023/08/06 03:30:35;;;;;;;;;0.00;0.00;;;;;26.45;42.25;101137.72;5014243;28;45295;-69
2023/08/06 03:33:00;;;;;;;;;0.00;0.00;;;;;26.46;42.25;101133.22;5032065;28;46291;-68
2023/08/06 03:35:26;;;;;;;;;1.00;0.00;;;;;26.46;41.80;101141.22;5032292;28;45207;-69
2023/08/06 03:37:51;;;;;;;;;0.67;0.67;;;;;26.43;42.39;101133.56;5032289;28;45224;-69
2023/08/06 03:40:16;;;;;;;;;0.00;0.00;;;;;26.45;42.28;101142.22;5032250;28;45181;-69
2023/08/06 03:42:41;;;;;;;;;0.00;0.00;;;;;26.43;41.97;101157.59;5032108;28;45230;-69
2023/08/06 03:45:07;;;;;;;;;1.00;1.00;;;;;26.43;42.37;101154.91;5031617;28;45228;-69
2023/08/06 03:47:33;;;;;;;;;0.33;0.33;;;;;26.43;41.73;101171.75;5034132;27;45275;-69
2023/08/06 03:49:58;;;;;;;;;0.00;0.00;;;;;26.43;41.82;101176.25;5035301;28;45220;-68
2023/08/06 03:52:23;;;;;;;;;2.67;2.00;;;;;26.42;42.34;101180.78;5034927;28;45392;-69
2023/08/06 03:54:49;;;;;;;;;0.00;0.00;;;;;26.43;42.53;101181.59;5017200;28;45467;-69
2023/08/06 03:57:14;;;;;;;;;1.00;1.00;;;;;26.43;41.88;101181.59;5034769;28;50779;-69
2023/08/06 03:59:39;;;;;;;;;1.00;1.00;;;;;26.41;41.67;101182.59;5034890;28;45357;-69
2023/08/06 04:02:05;;;;;;;;;0.67;0.00;;;;;26.40;41.83;101189.00;5034982;28;47154;-69
2023/08/06 04:04:30;;;;;;;;;0.00;0.00;;;;;26.39;41.87;101187.34;5034805;28;45264;-69
2023/08/06 04:06:55;;;;;;;;;0.00;0.00;;;;;26.40;42.06;101201.50;5035021;28;45301;-69
2023/08/06 04:09:21;;;;;;;;;0.00;0.00;;;;;26.37;42.01;101200.06;5034713;28;47846;-69
2023/08/06 04:11:46;;;;;;;;;0.00;0.00;;;;;26.38;42.35;101207.03;5034909;28;46286;-69
2023/08/06 04:14:11;;;;;;;;;1.00;1.00;;;;;26.39;42.47;101210.50;5034264;28;48144;-69
2023/08/06 04:16:36;;;;;;;;;1.00;1.00;;;;;26.36;41.98;101216.28;5035006;27;45474;-69
2023/08/06 04:19:02;;;;;;;;;0.00;0.00;;;;;26.38;42.24;101230.22;5034837;28;45392;-69
2023/08/06 04:21:27;;;;;;;;;0.00;0.00;;;;;26.37;42.21;101233.91;5034666;28;45316;-69
2023/08/06 04:23:52;;;;;;;;;0.00;0.00;;;;;26.37;42.18;101240.06;5034600;28;45378;-69
2023/08/06 04:26:18;;;;;;;;;0.67;0.67;;;;;26.32;41.96;101241.69;5034815;28;46214;-69
2023/08/06 04:28:43;;;;;;;;;1.00;0.00;;;;;26.38;41.97;101254.22;5034422;28;45342;-69
2023/08/06 04:31:08;;;;;;;;;0.00;0.00;;;;;26.38;42.38;101247.06;5034547;28;47207;-69
2023/08/06 04:33:34;;;;;;;;;0.00;0.00;;;;;26.40;42.26;101252.19;5034695;28;45297;-69
2023/08/06 04:35:59;;;;;;;;;0.00;0.00;;;;;26.38;41.86;101246.22;5034732;28;45273;-69
2023/08/06 04:38:25;;;;;;;;;1.00;1.00;;;;;26.41;41.76;101251.16;5034741;28;45347;-69
2023/08/06 04:40:50;;;;;;;;;0.00;0.00;;;;;26.41;41.66;101254.63;5034411;28;46178;-69
2023/08/06 04:43:16;;;;;;;;;1.00;0.00;;;;;26.41;41.78;101257.31;5034264;28;45330;-69
2023/08/06 04:45:54;;;;;;;;;0.00;0.00;;;;;26.41;42.20;101259.97;5034548;28;45352;-69
2023/08/06 04:48:19;;;;;;;;;0.00;0.00;;;;;26.43;41.75;101267.78;5034529;28;45305;-69
2023/08/06 04:50:49;;;;;;;;;0.00;0.00;;;;;26.45;42.10;101272.94;5034128;28;51579;-69
2023/08/06 04:53:15;;;;;;;;;1.00;0.00;;;;;26.45;41.69;101276.44;5034392;28;45339;-69
2023/08/06 04:55:40;;;;;;;;;0.00;0.00;;;;;26.43;41.73;101275.78;5034447;28;45344;-69
2023/08/06 04:58:06;;;;;;;;;0.00;0.00;;;;;26.45;42.16;101284.44;5033231;28;45231;-69
2023/08/06 05:00:32;;;;;;;;;0.00;0.00;;;;;26.44;41.81;101290.00;5034274;28;46043;-70
2023/08/06 05:03:00;;;;;;;;;0.00;0.00;;;;;26.43;41.67;101288.31;5034373;28;45398;-69
2023/08/06 05:05:25;;;;;;;;;0.00;0.00;;;;;26.45;41.65;101300.44;5034275;28;45390;-69
2023/08/06 05:07:51;;;;;;;;;1.00;1.00;;;;;26.47;42.22;101305.56;5034196;28;45508;-69
2023/08/06 05:10:16;;;;;;;;;0.00;0.00;;;;;26.47;41.84;101311.75;5033877;28;46921;-69
2023/08/06 05:12:42;;;;;;;;;0.67;0.67;;;;;26.48;42.07;101312.56;5033858;28;45412;-69
2023/08/06 05:15:07;;;;;;;;;0.00;0.00;;;;;26.47;41.53;101313.59;5034325;28;45337;-69
2023/08/06 05:17:33;;;;;;;;;0.00;0.00;;;;;26.47;41.68;101319.75;5034068;27;45393;-68
2023/08/06 05:19:59;;;;;;;;;0.00;0.00;;;;;26.48;41.56;101329.41;5033924;28;45256;-69
2023/08/06 05:22:25;;;;;;;;;1.00;1.00;;;;;26.49;41.74;101335.56;5033807;28;45262;-69
2023/08/06 05:24:50;;;;;;;;;0.00;0.00;;;;;26.49;41.61;101352.38;5033961;28;45274;-69
2023/08/06 05:27:15;;;;;;;;;0.00;0.00;;;;;26.50;41.82;101347.88;5033972;28;45383;-69
2023/08/06 05:29:41;;;;;;;;;0.00;0.00;;;;;26.52;41.66;101354.66;5033921;28;45354;-69
2023/08/06 05:32:06;;;;;;;;;3.00;1.00;;;;;26.57;41.36;101351.38;5033959;28;45263;-68
2023/08/06 05:34:32;;;;;;;;;0.00;0.00;;;;;26.60;41.54;101353.66;5033909;28;45284;-69
2023/08/06 05:36:57;;;;;;;;;2.00;0.33;;;;;26.66;42.10;101354.72;5034048;28;45268;-69
2023/08/06 05:39:22;;;;;;;;;0.00;0.00;;;;;26.72;41.86;101355.78;5033854;28;46239;-69
2023/08/06 05:41:48;;;;;;;;;1.00;1.00;;;;;26.80;41.39;101360.94;5033594;28;45262;-69
2023/08/06 05:44:13;;;;;;;;;1.67;1.00;;;;;26.91;41.48;101361.34;5033810;27;45220;-69
2023/08/06 05:46:38;;;;;;;;;0.00;0.00;;;;;27.01;41.62;101366.34;5033897;27;45492;-69
2023/08/06 05:49:04;;;;;;;;;1.00;1.00;;;;;27.15;41.26;101375.22;5033686;28;46154;-69
2023/08/06 05:51:30;;;;;;;;;0.00;0.00;;;;;27.25;41.08;101380.97;5034787;27;45272;-69
2023/08/06 05:53:55;;;;;;;;;1.00;0.00;;;;;27.40;40.38;101382.66;5033768;28;45303;-69
2023/08/06 05:56:21;;;;;;;;;1.00;1.00;;;;;27.56;40.22;101385.97;5033413;28;45535;-69
2023/08/06 05:58:47;;;;;;;;;0.00;0.00;;;;;27.70;40.15;101397.47;5033628;27;45357;-69
2023/08/06 06:01:12;;;;;;;;;0.00;0.00;;;;;27.80;40.25;101395.22;5033599;28;45400;-69
2023/08/06 06:03:38;;;;;;;;;0.00;0.00;;;;;27.95;40.15;101396.84;5033499;28;46058;-69
2023/08/06 06:06:03;;;;;;;;;0.00;0.00;;;;;28.14;39.74;101405.06;5033539;28;45366;-69
2023/08/06 06:08:28;;;;;;;;;0.67;0.67;;;;;28.35;39.29;101416.53;5033248;28;46242;-69
2023/08/06 06:10:54;;;;;;;;;1.00;1.00;;;;;28.47;38.92;101406.84;5032799;28;45281;-69
2023/08/06 06:13:19;;;;;;;;;2.00;1.00;;;;;28.58;38.87;101426.78;5033649;28;45264;-69
2023/08/06 06:15:47;;;;;;;;;1.00;1.00;;;;;28.69;39.23;101421.81;5033565;28;45344;-69
2023/08/06 06:18:12;;;;;;;;;0.00;0.00;;;;;28.79;38.71;101416.00;5032928;28;45403;-69
2023/08/06 06:20:37;;;;;;;;;2.00;0.00;;;;;28.83;38.63;101420.72;5033240;28;45370;-69
2023/08/06 06:23:02;;;;;;;;;1.00;1.00;;;;;28.92;38.82;101431.19;5033335;28;45269;-69
2023/08/06 06:25:28;;;;;;;;;1.33;0.00;;;;;29.01;37.84;101427.25;5032956;28;45286;-69
2023/08/06 06:27:53;;;;;;;;;1.00;1.00;;;;;29.14;38.03;101436.28;5033214;28;46260;-69
2023/08/06 06:30:18;;;;;;;;;0.00;0.00;;;;;29.12;38.01;101425.75;5033258;28;45567;-69
2023/08/06 06:32:44;;;;;;;;;0.00;0.00;;;;;29.08;38.00;101440.59;5033254;28;45419;-69
2023/08/06 06:35:10;;;;;;;;;0.00;0.00;;;;;29.00;38.03;101436.31;5032869;28;50863;-69
2023/08/06 06:37:35;;;;;;;;;1.67;1.33;;;;;28.99;38.59;101437.31;5032946;27;46429;-69
2023/08/06 06:40:00;;;;;;;;;0.67;0.00;;;;;29.00;38.11;101438.16;5032779;28;45307;-69
2023/08/06 06:42:26;;;;;;;;;0.00;0.00;;;;;29.05;38.20;101441.84;5033150;28;45357;-69
2023/08/06 06:44:51;;;;;;;;;0.00;0.00;;;;;29.15;37.59;101444.06;5032966;28;45398;-69
2023/08/06 06:47:16;;;;;;;;;0.00;0.00;;;;;29.26;37.65;101447.09;5032785;28;46894;-69
2023/08/06 06:49:42;;;;;;;;;0.00;0.00;;;;;29.40;37.40;101455.91;5032766;28;45389;-69
2023/08/06 06:52:07;;;;;;;;;0.33;0.00;;;;;29.54;37.21;101458.47;5032826;28;45345;-69
2023/08/06 06:54:33;;;;;;;;;0.00;0.00;;;;;29.53;37.34;101460.34;5032626;28;45506;-69
2023/08/06 06:56:58;;;;;;;;;0.67;0.67;;;;;29.45;37.24;101464.13;5032692;28;47124;-69
2023/08/06 06:59:23;;;;;;;;;0.33;0.00;;;;;29.36;37.53;101465.38;5032720;28;45433;-69
2023/08/06 07:01:49;;;;;;;;;0.00;0.00;;;;;29.26;37.50;101472.06;5032880;28;45354;-69
2023/08/06 07:04:14;;;;;;;;;0.33;0.00;;;;;29.17;37.60;101465.31;5032532;28;45202;-69
2023/08/06 07:06:39;;;;;;;;;0.00;0.00;;;;;29.07;37.43;101463.88;5033602;27;45305;-69
2023/08/06 07:09:05;;;;;;;;;0.00;0.00;;;;;28.93;37.90;101449.75;5031996;27;45335;-72
2023/08/06 07:11:31;;;;;;;;;0.00;0.00;;;;;28.92;37.82;101460.66;5032683;28;45349;-72
2023/08/06 07:13:58;;;;;;;;;0.00;0.00;;;;;28.87;38.00;101471.16;5032690;28;45274;-72
2023/08/06 07:16:24;;;;;;;;;0.00;0.00;;;;;28.80;37.74;101469.34;5032279;28;47116;-72
2023/08/06 07:18:52;;;;;;;;;1.00;1.00;;;;;28.66;37.84;101451.69;5032240;27;45290;-72
2023/08/06 07:21:17;;;;;;;;;0.33;0.33;;;;;28.67;37.84;101469.41;5032589;28;45327;-72
2023/08/06 07:23:42;;;;;;;;;0.33;0.33;;;;;28.67;38.09;101478.25;5035041;28;45409;-72
2023/08/06 07:26:09;;;;;;;;;0.00;0.00;;;;;28.65;37.99;101482.19;5035335;28;46712;-72
2023/08/06 07:28:34;;;;;;;;;0.00;0.00;;;;;28.60;38.53;101494.31;5035550;28;45502;-72
2023/08/06 07:30:59;;;;;;;;;0.00;0.00;;;;;28.56;38.50;101493.09;5035485;28;45496;-71
2023/08/06 07:33:25;;;;;;;;;0.00;0.00;;;;;28.54;38.52;101497.84;5035528;28;45424;-70
2023/08/06 07:35:50;;;;;;;;;0.00;0.00;;;;;28.50;38.57;101491.25;5035172;28;46326;-72
2023/08/06 07:38:16;;;;;;;;;0.00;0.00;;;;;28.37;38.59;101476.00;5016995;28;45343;-72
2023/08/06 07:40:42;;;;;;;;;1.00;1.00;;;;;28.43;38.25;101493.94;5035356;28;45215;-72
2023/08/06 07:43:07;;;;;;;;;2.00;0.00;;;;;27.50;38.93;101350.19;5035265;28;45379;-72
2023/08/06 07:45:34;;;;;;;;;1.00;1.00;;;;;28.27;38.29;101476.44;5033976;27;46272;-72
2023/08/06 07:48:00;;;;;;;;;0.00;0.00;;;;;28.33;38.75;101488.19;5035074;28;45548;-72
2023/08/06 07:50:25;;;;;;;;;0.00;0.00;;;;;28.30;38.92;101492.09;5035285;27;45370;-71
2023/08/06 07:52:50;;;;;;;;;0.33;0.33;;;;;28.35;38.62;101503.00;5034770;28;45334;-72
2023/08/06 07:55:16;;;;;;;;;1.00;1.00;;;;;28.34;38.76;101506.69;5035031;28;46210;-71
2023/08/06 07:57:41;;;;;;;;;0.67;0.67;;;;;28.31;38.58;101506.28;5035120;28;45358;-72
2023/08/06 08:00:07;;;;;;;;;0.00;0.00;;;;;28.32;39.05;101503.41;5035134;28;45393;-72
2023/08/06 08:02:32;;;;;;;;;0.00;0.00;;;;;28.22;38.80;101497.66;5035117;27;45583;-71
2023/08/06 08:04:58;;;;;;;;;1.00;1.00;;;;;28.28;39.06;101504.84;5033671;27;47345;-72
2023/08/06 08:07:23;;;;;;;;;1.00;1.00;;;;;28.25;38.63;101514.13;5034484;28;45384;-71
2023/08/06 08:09:49;;;;;;;;;0.00;0.00;;;;;28.23;39.12;101513.50;5034902;27;45661;-72
2023/08/06 08:12:14;;;;;;;;;0.00;0.00;;;;;28.17;38.77;101512.47;5034908;28;45425;-71
2023/08/06 08:14:40;;;;;;;;;0.00;0.00;;;;;28.15;38.73;101519.91;5034581;28;50972;-72
2023/08/06 08:17:05;;;;;;;;;1.67;0.33;;;;;28.13;38.95;101523.81;5034792;28;45287;-71
2023/08/06 08:19:32;;;;;;;;;0.67;0.67;;;;;28.10;39.14;101527.72;5034619;27;45527;-71
2023/08/06 08:21:57;;;;;;;;;0.00;0.00;;;;;28.02;39.06;101534.09;5034583;28;45262;-71
2023/08/06 08:24:25;;;;;;;;;0.00;0.00;;;;;27.84;39.16;101500.72;5034355;28;45313;-72
2023/08/06 08:26:51;;;;;;;;;0.00;0.00;;;;;28.02;38.91;101534.09;5034561;28;45904;-72
2023/08/06 08:29:17;;;;;;;;;0.00;0.00;;;;;27.89;39.20;101526.88;5034687;28;45459;-72
2023/08/06 08:31:43;;;;;;;;;0.00;0.00;;;;;27.89;38.86;101531.38;5034630;28;45427;-71
2023/08/06 08:34:08;;;;;;;;;0.00;0.00;;;;;27.94;39.35;101534.28;5032993;28;45464;-72
2023/08/06 08:36:34;;;;;;;;;0.00;0.00;;;;;27.89;38.92;101532.22;5034062;28;45410;-72
2023/08/06 08:38:59;;;;;;;;;0.00;0.00;;;;;27.84;39.46;101530.13;5034657;28;45396;-71
2023/08/06 08:41:27;;;;;;;;;0.00;0.00;;;;;27.98;39.53;101551.56;5034647;28;45368;-71
2023/08/06 08:43:53;;;;;;;;;1.00;1.00;;;;;27.81;39.33;101533.25;5034367;28;47282;-71
2023/08/06 08:46:19;;;;;;;;;0.00;0.00;;;;;27.84;39.18;101540.81;5034222;28;45256;-71
2023/08/06 08:48:46;;;;;;;;;0.00;0.00;;;;;27.91;39.15;101566.78;5034248;28;45347;-71
2023/08/06 08:51:13;;;;;;;;;0.00;0.00;;;;;27.86;39.59;101551.34;5034483;28;45315;-71
2023/08/06 08:53:39;;;;;;;;;0.67;0.67;;;;;27.84;39.63;101550.72;5034158;28;45433;-71
2023/08/06 08:56:05;;;;;;;;;0.67;0.67;;;;;27.81;39.62;101548.44;5034313;28;45291;-71
2023/08/06 08:58:31;;;;;;;;;0.00;0.00;;;;;27.85;39.13;101555.03;5034311;28;45225;-71
2023/08/06 09:00:57;;;;;;;;;0.00;0.00;;;;;27.90;39.14;101554.41;5034295;28;45428;-71
2023/08/06 09:03:23;;;;;;;;;0.00;0.00;;;;;27.83;39.83;101554.41;5033541;28;45512;-71
2023/08/06 09:05:51;;;;;;;;;0.00;0.00;;;;;27.80;39.34;101563.66;5034147;28;45300;-71
2023/08/06 09:08:19;;;;;;;;;0.00;0.00;;;;;27.70;39.46;101547.97;5034243;28;45473;-71
2023/08/06 09:10:48;;;;;;;;;0.00;0.00;;;;;27.80;39.89;101571.69;5034158;28;45289;-71
2023/08/06 09:13:13;;;;;;;;;0.00;0.00;;;;;27.74;39.60;101556.41;5034033;28;46387;-71
2023/08/06 09:15:39;;;;;;;;;0.00;0.00;;;;;27.77;39.30;101571.22;5016232;28;45564;-71
2023/08/06 09:18:11;;;;;;;;;0.00;0.00;;;;;27.81;39.46;101568.00;5033864;27;45392;-72
2023/08/06 09:20:40;;;;;;;;;0.00;0.00;;;;;27.80;39.58;101576.19;5034226;28;45296;-71
2023/08/06 09:23:10;;;;;;;;;1.00;1.00;;;;;27.78;39.39;101575.56;5033702;28;46085;-71
2023/08/06 09:25:39;;;;;;;;;1.00;0.00;;;;;27.75;39.48;101579.47;5033957;28;45455;-71
2023/08/06 09:28:04;;;;;;;;;0.00;0.00;;;;;27.75;39.35;101582.13;5033995;28;45517;-71
2023/08/06 09:30:35;;;;;;;;;0.33;0.33;;;;;27.76;39.41;101577.63;5034024;28;45502;-71
2023/08/06 09:33:01;;;;;;;;;0.00;0.00;;;;;27.74;39.82;101578.63;5033512;28;46070;-71
2023/08/06 09:35:30;;;;;;;;;1.00;0.00;;;;;27.74;39.13;101573.28;5033502;28;45162;-71
2023/08/06 09:38:06;;;;;;;;;0.00;0.00;;;;;27.72;39.61;101579.84;5034184;28;45421;-71
2023/08/06 09:40:32;;;;;;;;;0.00;0.00;;;;;27.71;39.51;101572.88;5033894;28;45345;-71
2023/08/06 09:42:59;;;;;;;;;0.00;0.00;;;;;27.62;39.68;101572.22;5033635;28;46050;-72
2023/08/06 09:45:35;;;;;;;;;0.33;0.33;;;;;27.66;39.46;101575.34;5032939;28;45376;-72
2023/08/06 09:48:04;;;;;;;;;1.00;1.00;;;;;27.67;39.31;101582.31;5033295;28;45310;-71
2023/08/06 09:50:31;;;;;;;;;0.00;0.00;;;;;27.57;39.67;101580.03;5033637;28;45541;-71
2023/08/06 09:52:58;;;;;;;;;0.00;0.00;;;;;27.64;40.05;101583.53;5033302;28;46200;-71
2023/08/06 09:55:25;;;;;;;;;0.00;0.00;;;;;27.57;39.83;101569.31;5033432;28;45327;-71
2023/08/06 09:57:51;;;;;;;;;0.00;0.00;;;;;27.63;39.64;101571.22;5033700;28;45267;-72
2023/08/06 10:00:17;;;;;;;;;1.00;1.00;;;;;27.57;39.83;101580.84;5033432;28;45291;-72
2023/08/06 10:02:43;;;;;;;;;0.67;0.67;;;;;27.51;39.32;101576.28;5032965;28;46514;-72
2023/08/06 10:05:09;;;;;;;;;0.00;0.00;;;;;27.58;39.52;101592.38;5033386;28;45258;-72
2023/08/06 10:07:35;;;;;;;;;1.00;0.33;;;;;27.58;39.39;101597.72;5033510;28;45260;-72
2023/08/06 10:10:02;;;;;;;;;2.00;0.00;;;;;27.57;39.79;101604.06;5033402;27;45410;-72
2023/08/06 10:12:31;;;;;;;;;1.00;1.00;;;;;27.56;39.92;101611.25;5033193;28;47176;-71
2023/08/06 10:15:01;;;;;;;;;0.00;0.00;;;;;27.54;39.88;101615.97;5033196;28;45655;-71
2023/08/06 10:17:28;;;;;;;;;2.00;1.00;;;;;27.54;40.16;101615.16;5032820;28;45409;-72
2023/08/06 10:19:58;;;;;;;;;1.00;1.00;;;;;27.49;39.40;101607.75;5033315;28;45378;-71
2023/08/06 10:22:24;;;;;;;;;0.00;0.00;;;;;27.47;39.90;101607.94;5032999;28;47225;-71
2023/08/06 10:24:55;;;;;;;;;0.00;0.00;;;;;27.49;39.60;101611.25;5033000;28;45504;-72
2023/08/06 10:27:32;;;;;;;;;0.00;0.00;;;;;27.45;39.75;101619.88;5015307;28;45354;-72
2023/08/06 10:30:20;;;;;;;;;1.33;1.33;;;;;27.49;40.10;101619.25;5033320;28;45265;-72
2023/08/06 10:32:50;;;;;;;;;0.00;0.00;;;;;27.44;40.08;101620.88;5032968;28;46425;-72
2023/08/06 10:35:34;;;;;;;;;0.33;0.33;;;;;27.37;39.54;101608.31;5032830;28;45245;-72
2023/08/06 10:38:15;;;;;;;;;0.00;0.00;;;;;27.45;39.71;101619.88;5033129;28;45346;-71
2023/08/06 10:40:53;;;;;;;;;0.33;0.33;;;;;27.34;39.66;101608.72;5033173;28;45479;-71
2023/08/06 10:43:43;;;;;;;;;0.00;0.00;;;;;27.35;39.54;101607.69;5032851;28;45351;-72
2023/08/06 10:46:22;;;;;;;;;0.33;0.33;;;;;27.33;39.98;101601.72;5032396;28;45232;-72
2023/08/06 10:48:48;;;;;;;;;1.00;1.00;;;;;27.35;40.12;101609.53;5033016;28;45449;-71
2023/08/06 10:51:14;;;;;;;;;2.00;2.00;;;;;27.34;40.20;101608.72;5032823;28;45399;-72
2023/08/06 10:53:44;;;;;;;;;0.67;0.00;;;;;27.35;39.66;101607.69;5032622;28;46289;-72
2023/08/06 10:56:22;;;;;;;;;0.67;0.67;;;;;27.42;40.31;101610.41;5013781;28;45285;-72
2023/08/06 10:58:48;;;;;;;;;0.00;0.00;;;;;27.38;39.78;101609.13;5032715;27;45288;-72
2023/08/06 11:01:14;;;;;;;;;0.00;0.00;;;;;27.43;40.25;101621.91;5032435;28;45317;-72
2023/08/06 11:03:43;;;;;;;;;0.67;0.67;;;;;27.39;40.11;101614.28;5032461;28;46373;-72
2023/08/06 11:06:09;;;;;;;;;1.00;1.00;;;;;27.41;39.69;101627.44;5032527;28;45335;-72
2023/08/06 11:08:36;;;;;;;;;0.00;0.00;;;;;27.42;40.18;101644.31;5032638;28;45390;-72
2023/08/06 11:11:10;;;;;;;;;1.00;1.00;;;;;27.42;39.54;101636.28;5032534;28;45417;-72
2023/08/06 11:13:36;;;;;;;;;1.33;0.33;;;;;27.39;40.26;101641.00;5032295;28;45489;-72
2023/08/06 11:16:01;;;;;;;;;0.00;0.00;;;;;27.35;39.52;101639.75;5014108;28;45973;-72
2023/08/06 11:18:26;;;;;;;;;1.00;1.00;;;;;27.36;40.09;101637.91;5032485;27;45350;-72
2023/08/06 11:20:52;;;;;;;;;0.00;0.00;;;;;27.37;40.05;101642.22;5032577;28;45370;-71